Time;durP1;ratioP1;P1;durP2;ratioP2;P2;SDS_P1;SDS_P2;PMS_P1;PMS_P2;Temp;Humidity;BMP_temperature;BMP_pressure;BME280_temperature;BME280_humidity;BME280_pressure;Samples;Min_cycle;Max_cycle;Signal;HPM_P1;HPM_P2
2022/03/02 00:01:57;;;;;;;;;;;;;;;6.43;42.29;102163.41;5009265;28;19932;-78
2022/03/02 00:04:23;;;;;;;;;;;;;;;6.46;43.16;102163.44;5006834;28;19925;-77
2022/03/02 00:06:49;;;;;;;;;;;;;;;6.49;42.01;102159.25;5006676;28;20389;-77
2022/03/02 00:09:14;;;;;;;;;;;;;;;6.46;42.13;102158.28;4998029;28;19930;-77
2022/03/02 00:11:39;;;;;;;;;;;;;;;6.50;42.00;102152.38;5007868;28;20386;-77
2022/03/02 00:14:05;;;;;;;;;;;;;;;6.51;42.37;102159.28;4998133;28;19932;-78
2022/03/02 00:16:31;;;;;;;;;;;;;;;6.47;42.46;102154.88;5002863;28;19924;-78
2022/03/02 00:18:57;;;;;;;;;;;;;;;6.30;43.65;102153.72;4999809;28;19922;-78
2022/03/02 00:21:22;;;;;;;;;;;;;;;6.40;42.40;102155.59;5013162;28;19921;-78
2022/03/02 00:23:48;;;;;;;;;;;;;;;6.49;41.78;102154.09;5007979;28;19925;-78
2022/03/02 00:26:13;;;;;;;;;;;;;;;6.38;42.80;102146.97;5008703;28;19929;-78
2022/03/02 00:28:39;;;;;;;;;;;;;;;6.32;43.11;102141.69;5006557;28;20382;-78
2022/03/02 00:31:04;;;;;;;;;;;;;;;6.28;43.04;102145.03;5006968;28;19929;-78
2022/03/02 00:33:30;;;;;;;;;;;;;;;6.37;43.47;102148.66;5011094;28;19929;-77
2022/03/02 00:35:55;;;;;;;;;;;;;;;6.34;42.52;102145.16;5007059;28;20382;-78
2022/03/02 00:38:20;;;;;;;;;;;;;;;6.41;42.01;102141.84;5013076;28;19921;-77
2022/03/02 00:40:45;;;;;;;;;;;;;;;6.12;42.67;102145.63;5022431;28;20016;-77
2022/03/02 00:43:11;;;;;;;;;;;;;;;6.24;42.66;102146.72;5011948;28;20348;-75
2022/03/02 00:45:37;;;;;;;;;;;;;;;6.28;43.25;102143.34;5008564;28;19932;-75
2022/03/02 00:48:03;;;;;;;;;;;;;;;6.07;43.91;102148.09;5007510;28;20000;-75
2022/03/02 00:50:29;;;;;;;;;;;;;;;5.94;43.35;102143.56;5003687;28;20453;-76
2022/03/02 00:52:55;;;;;;;;;;;;;;;6.06;41.88;102141.22;5017530;28;19967;-75
2022/03/02 00:55:21;;;;;;;;;;;;;;;6.08;42.49;102129.19;5009740;28;20036;-78
2022/03/02 00:57:46;;;;;;;;;;;;;;;6.05;41.56;102126.56;5011164;28;20028;-78
2022/03/02 01:00:12;;;;;;;;;;;;;;;5.89;43.36;102132.28;5008272;28;19943;-78
2022/03/02 01:02:37;;;;;;;;;;;;;;;5.71;43.38;102127.59;5012152;28;19980;-77
2022/03/02 01:05:04;;;;;;;;;;;;;;;5.60;43.79;102128.22;5008817;28;19983;-77
2022/03/02 01:07:29;;;;;;;;;;;;;;;5.78;43.04;102121.75;5013409;28;19929;-77
2022/03/02 01:09:55;;;;;;;;;;;;;;;5.84;42.88;102110.66;5006427;28;19937;-77
2022/03/02 01:12:20;;;;;;;;;;;;;;;5.79;43.59;102110.59;5004315;28;19925;-77
2022/03/02 01:14:45;;;;;;;;;;;;;;;5.82;43.42;102109.78;5012313;28;19967;-77
2022/03/02 01:17:10;;;;;;;;;;;;;;;5.59;44.15;102104.19;5009529;28;19926;-77
2022/03/02 01:19:37;;;;;;;;;;;;;;;5.73;43.82;102101.88;5009466;28;19922;-77
2022/03/02 01:22:02;;;;;;;;;;;;;;;5.43;43.91;102102.97;5009563;28;20052;-77
2022/03/02 01:24:27;;;;;;;;;;;;;;;5.52;43.56;102101.41;5008589;28;19929;-77
2022/03/02 01:26:53;;;;;;;;;;;;;;;5.19;44.02;102102.44;5016162;28;19930;-77
2022/03/02 01:29:18;;;;;;;;;;;;;;;5.32;44.62;102095.84;5010223;28;19972;-77
2022/03/02 01:31:43;;;;;;;;;;;;;;;5.41;45.54;102102.09;5023420;28;19929;-75
2022/03/02 01:34:09;;;;;;;;;;;;;;;4.98;45.13;102090.78;5014710;28;19936;-75
2022/03/02 01:36:34;;;;;;;;;;;;;;;5.36;45.65;102097.66;5009771;28;20340;-75
2022/03/02 01:38:59;;;;;;;;;;;;;;;5.44;44.37;102083.25;5010247;28;19929;-75
2022/03/02 01:41:25;;;;;;;;;;;;;;;5.30;45.45;102082.94;5014485;28;19922;-77
2022/03/02 01:43:51;;;;;;;;;;;;;;;5.12;46.04;102085.09;5014093;28;19928;-77
2022/03/02 01:46:19;;;;;;;;;;;;;;;5.38;45.48;102075.38;5011196;28;20555;-77
2022/03/02 01:48:45;;;;;;;;;;;;;;;5.43;44.68;102077.22;5005643;28;19930;-77
2022/03/02 01:51:10;;;;;;;;;;;;;;;5.44;44.15;102068.63;5006732;28;20005;-77
2022/03/02 01:53:36;;;;;;;;;;;;;;;5.54;45.76;102074.84;5024280;28;19948;-77
2022/03/02 01:56:01;;;;;;;;;;;;;;;5.62;45.93;102072.44;5007847;28;19928;-77
2022/03/02 01:58:27;;;;;;;;;;;;;;;5.60;45.22;102068.94;5009548;28;19917;-76
2022/03/02 02:00:53;;;;;;;;;;;;;;;5.50;43.61;102072.19;5006799;28;19926;-75
2022/03/02 02:03:18;;;;;;;;;;;;;;;5.39;44.55;102069.38;5012963;28;20345;-76
2022/03/02 02:05:44;;;;;;;;;;;;;;;5.11;44.44;102067.94;5012071;28;19926;-76
2022/03/02 02:08:09;;;;;;;;;;;;;;;4.94;46.41;102073.53;5009517;28;20032;-75
2022/03/02 02:10:35;;;;;;;;;;;;;;;5.18;47.96;102069.78;5009133;28;19929;-75
2022/03/02 02:13:00;;;;;;;;;;;;;;;5.45;44.63;102070.38;5006097;28;19921;-76
2022/03/02 02:15:26;;;;;;;;;;;;;;;5.42;45.01;102066.84;5007214;28;19980;-75
2022/03/02 02:17:51;;;;;;;;;;;;;;;5.21;46.15;102072.41;5010557;28;19925;-75
2022/03/02 02:20:16;;;;;;;;;;;;;;;5.33;45.67;102061.50;5007414;28;19925;-75
2022/03/02 02:22:43;;;;;;;;;;;;;;;5.59;45.11;102059.47;5014548;28;20404;-76
2022/03/02 02:25:09;;;;;;;;;;;;;;;5.64;45.89;102061.31;5019671;28;19925;-77
2022/03/02 02:27:34;;;;;;;;;;;;;;;5.55;46.94;102055.09;5009211;28;19929;-77
2022/03/02 02:30:00;;;;;;;;;;;;;;;5.49;47.36;102058.41;5004443;28;19985;-77
2022/03/02 02:32:25;;;;;;;;;;;;;;;5.48;47.29;102059.25;5006328;28;20509;-75
2022/03/02 02:34:51;;;;;;;;;;;;;;;5.70;47.89;102055.41;5007950;28;19925;-76
2022/03/02 02:37:16;;;;;;;;;;;;;;;5.68;46.32;102046.78;5007700;28;19925;-75
2022/03/02 02:39:41;;;;;;;;;;;;;;;5.68;45.79;102051.94;5008115;28;19932;-75
2022/03/02 02:42:07;;;;;;;;;;;;;;;5.91;45.44;102046.38;5003564;28;20336;-75
2022/03/02 02:44:34;;;;;;;;;;;;;;;5.73;45.17;102045.16;5006766;28;19929;-77
2022/03/02 02:46:59;;;;;;;;;;;;;;;5.72;45.30;102043.41;5009600;28;20060;-78
2022/03/02 02:49:25;;;;;;;;;;;;;;;5.63;45.47;102040.63;5012561;28;20024;-78
2022/03/02 02:51:50;;;;;;;;;;;;;;;5.83;45.08;102037.59;5007254;28;20430;-77
2022/03/02 02:54:16;;;;;;;;;;;;;;;5.54;45.29;102032.72;5011839;28;19921;-77
2022/03/02 02:56:41;;;;;;;;;;;;;;;5.49;45.43;102045.53;5010614;28;19925;-77
2022/03/02 02:59:06;;;;;;;;;;;;;;;5.37;45.17;102037.56;5007289;28;20412;-77
2022/03/02 03:01:32;;;;;;;;;;;;;;;5.61;44.90;102045.78;5006097;28;19971;-77
2022/03/02 03:03:57;;;;;;;;;;;;;;;5.57;45.00;102040.50;5008817;28;20310;-77
2022/03/02 03:06:22;;;;;;;;;;;;;;;5.46;45.77;102042.91;5009572;28;20412;-77
2022/03/02 03:08:48;;;;;;;;;;;;;;;5.39;44.90;102038.44;5006603;28;20012;-76
2022/03/02 03:11:13;;;;;;;;;;;;;;;5.64;44.03;102034.66;5007357;28;19931;-75
2022/03/02 03:13:38;;;;;;;;;;;;;;;5.53;44.80;102036.16;5021300;28;20051;-76
2022/03/02 03:16:04;;;;;;;;;;;;;;;5.45;45.99;102033.41;5006281;28;19937;-77
2022/03/02 03:18:29;;;;;;;;;;;;;;;5.42;45.99;102034.22;5013416;28;20357;-76
2022/03/02 03:20:54;;;;;;;;;;;;;;;5.47;44.99;102031.75;5008484;28;19964;-77
2022/03/02 03:23:21;;;;;;;;;;;;;;;5.00;45.49;102032.47;5007770;28;20025;-77
2022/03/02 03:25:46;;;;;;;;;;;;;;;5.19;45.87;102032.91;5009769;28;19921;-77
2022/03/02 03:28:11;;;;;;;;;;;;;;;5.11;46.05;102038.72;5008713;28;20379;-77
2022/03/02 03:30:37;;;;;;;;;;;;;;;5.00;45.70;102029.91;5007862;28;19930;-77
2022/03/02 03:33:04;;;;;;;;;;;;;;;5.12;45.29;102027.59;5010826;28;19925;-77
2022/03/02 03:35:30;;;;;;;;;;;;;;;5.34;45.05;102022.03;5006110;28;19925;-77
2022/03/02 03:37:55;;;;;;;;;;;;;;;5.43;45.58;102015.34;5010339;28;19929;-77
2022/03/02 03:40:21;;;;;;;;;;;;;;;5.34;46.33;102027.19;5007909;28;19921;-76
2022/03/02 03:42:47;;;;;;;;;;;;;;;5.40;47.00;102020.44;5019008;28;19949;-78
2022/03/02 03:45:12;;;;;;;;;;;;;;;5.49;46.91;102019.75;5005168;28;19979;-78
2022/03/02 03:47:38;;;;;;;;;;;;;;;5.51;47.09;102015.50;5009016;28;19921;-78
2022/03/02 03:50:04;;;;;;;;;;;;;;;5.51;45.97;102018.06;5005807;28;20341;-78
2022/03/02 03:52:29;;;;;;;;;;;;;;;5.26;46.57;102010.72;5004698;28;19943;-78
2022/03/02 03:54:54;;;;;;;;;;;;;;;5.53;46.13;102012.97;5008793;28;19929;-78
2022/03/02 03:57:20;;;;;;;;;;;;;;;5.60;45.79;102010.53;5009599;28;19928;-77
2022/03/02 03:59:45;;;;;;;;;;;;;;;5.64;45.43;102017.47;5006874;28;20432;-75
2022/03/02 04:02:10;;;;;;;;;;;;;;;5.51;45.16;102015.50;5009006;28;20012;-76
2022/03/02 04:04:36;;;;;;;;;;;;;;;5.46;45.48;102020.56;5012143;28;19921;-75
2022/03/02 04:07:01;;;;;;;;;;;;;;;5.40;45.76;102017.00;5005897;28;19964;-77
2022/03/02 04:09:26;;;;;;;;;;;;;;;5.60;45.54;102009.66;5006973;28;19940;-77
2022/03/02 04:11:52;;;;;;;;;;;;;;;5.66;45.22;102002.91;5007002;28;19944;-78
2022/03/02 04:14:17;;;;;;;;;;;;;;;5.52;45.00;102004.34;5013766;28;19928;-78
2022/03/02 04:16:42;;;;;;;;;;;;;;;5.48;45.36;102002.56;5010067;28;19975;-77
2022/03/02 04:19:08;;;;;;;;;;;;;;;5.32;46.58;102003.97;5004091;28;20402;-77
2022/03/02 04:21:34;;;;;;;;;;;;;;;5.22;46.60;102004.63;5006477;28;19948;-77
2022/03/02 04:23:59;;;;;;;;;;;;;;;5.30;45.83;102000.47;5006168;28;19934;-77
2022/03/02 04:26:24;;;;;;;;;;;;;;;5.29;45.06;101995.31;5004310;28;19925;-77
2022/03/02 04:28:50;;;;;;;;;;;;;;;5.47;46.71;101995.69;5004348;28;19956;-77
2022/03/02 04:31:17;;;;;;;;;;;;;;;5.72;45.52;101989.25;5006379;28;20220;-77
2022/03/02 04:33:42;;;;;;;;;;;;;;;5.67;45.04;101986.59;5004191;28;20329;-76
2022/03/02 04:36:07;;;;;;;;;;;;;;;5.70;45.58;101984.09;5003887;28;19965;-76
2022/03/02 04:38:33;;;;;;;;;;;;;;;5.58;44.53;101980.41;5007038;28;20424;-75
2022/03/02 04:40:59;;;;;;;;;;;;;;;5.75;45.08;101984.16;5004866;28;19930;-76
2022/03/02 04:43:24;;;;;;;;;;;;;;;5.67;45.19;101978.00;5005857;28;19949;-77
2022/03/02 04:45:50;;;;;;;;;;;;;;;5.70;45.24;101976.34;5007768;28;19936;-78
2022/03/02 04:48:15;;;;;;;;;;;;;;;5.79;45.46;101978.22;5000218;28;19968;-76
2022/03/02 04:50:40;;;;;;;;;;;;;;;5.90;45.83;101975.00;5002433;28;19937;-76
2022/03/02 04:53:06;;;;;;;;;;;;;;;5.58;44.78;101980.41;5003318;28;19932;-76
2022/03/02 04:55:31;;;;;;;;;;;;;;;5.55;45.44;101976.06;5007685;28;19921;-75
2022/03/02 04:57:58;;;;;;;;;;;;;;;5.76;45.66;101973.88;5004174;28;20337;-76
2022/03/02 05:00:28;;;;;;;;;;;;;;;5.82;44.87;101966.25;5007765;28;19925;-76
2022/03/02 05:02:54;;;;;;;;;;;;;;;5.84;44.61;101967.16;5007557;28;19921;-75
2022/03/02 05:05:21;;;;;;;;;;;;;;;5.97;44.98;101966.53;5006095;28;19921;-75
2022/03/02 05:07:46;;;;;;;;;;;;;;;5.81;44.88;101959.34;4999065;28;19922;-76
2022/03/02 05:10:13;;;;;;;;;;;;;;;5.70;45.60;101958.31;5016767;28;20004;-76
2022/03/02 05:12:39;;;;;;;;;;;;;;;5.75;45.93;101966.09;5004394;28;19921;-76
2022/03/02 05:15:05;;;;;;;;;;;;;;;5.86;44.41;101965.44;5003221;28;19926;-76
2022/03/02 05:17:31;;;;;;;;;;;;;;;5.82;44.86;101962.81;4998413;28;19922;-76
2022/03/02 05:19:56;;;;;;;;;;;;;;;5.71;44.02;101960.03;5000962;28;19975;-75
2022/03/02 05:22:21;;;;;;;;;;;;;;;5.62;44.51;101961.59;5006821;28;20662;-78
2022/03/02 05:24:47;;;;;;;;;;;;;;;5.61;44.95;101963.28;5006659;28;19921;-78
2022/03/02 05:27:12;;;;;;;;;;;;;;;5.75;44.63;101960.94;5003555;28;19953;-78
2022/03/02 05:29:37;;;;;;;;;;;;;;;5.76;44.78;101960.13;5004512;28;20441;-78
2022/03/02 05:32:03;;;;;;;;;;;;;;;5.67;45.33;101962.53;5007749;28;19930;-77
2022/03/02 05:34:29;;;;;;;;;;;;;;;5.71;44.00;101965.19;5012538;28;19925;-77
2022/03/02 05:36:54;;;;;;;;;;;;;;;5.54;46.02;101960.56;5011954;28;19979;-77
2022/03/02 05:39:19;;;;;;;;;;;;;;;5.70;46.03;101955.72;5010946;28;19932;-77
2022/03/02 05:41:45;;;;;;;;;;;;;;;5.61;44.90;101963.28;5029271;28;19925;-76
2022/03/02 05:44:11;;;;;;;;;;;;;;;5.58;45.45;101963.25;5023594;28;20466;-78
2022/03/02 05:46:37;;;;;;;;;;;;;;;5.74;45.20;101970.38;5013622;28;19928;-78
2022/03/02 05:49:03;;;;;;;;;;;;;;;5.56;44.85;101966.63;5009287;28;19929;-78
2022/03/02 05:51:30;;;;;;;;;;;;;;;5.62;45.63;101965.03;5013034;28;20310;-77
2022/03/02 05:53:56;;;;;;;;;;;;;;;5.75;44.78;101966.97;5020580;28;20356;-78
2022/03/02 05:56:21;;;;;;;;;;;;;;;5.34;45.48;101967.94;5022485;28;19957;-76
2022/03/02 05:58:47;;;;;;;;;;;;;;;5.53;45.24;101969.16;5010216;28;20464;-76
2022/03/02 06:01:12;;;;;;;;;;;;;;;5.78;45.58;101974.78;5012984;28;19928;-77
2022/03/02 06:03:37;;;;;;;;;;;;;;;5.70;45.94;101975.47;5005834;28;20409;-77
2022/03/02 06:06:04;;;;;;;;;;;;;;;5.66;45.98;101977.13;5008105;28;19922;-76
2022/03/02 06:08:29;;;;;;;;;;;;;;;5.73;45.95;101976.41;5004085;28;19929;-75
2022/03/02 06:10:54;;;;;;;;;;;;;;;5.81;46.17;101968.78;5027029;28;20650;-76
2022/03/02 06:13:20;;;;;;;;;;;;;;;5.71;44.78;101972.06;5011382;28;20294;-77
2022/03/02 06:15:45;;;;;;;;;;;;;;;5.74;45.99;101975.53;5009192;28;20431;-77
2022/03/02 06:18:10;;;;;;;;;;;;;;;5.72;44.92;101979.81;5008561;28;19925;-76
2022/03/02 06:20:36;;;;;;;;;;;;;;;5.70;46.79;101972.91;5005795;28;19976;-76
2022/03/02 06:23:02;;;;;;;;;;;;;;;5.70;46.73;101976.34;5008110;28;20401;-75
2022/03/02 06:25:28;;;;;;;;;;;;;;;5.44;46.66;101983.56;5004482;28;20621;-78
2022/03/02 06:27:53;;;;;;;;;;;;;;;5.43;44.85;101976.72;5005626;28;19965;-78
2022/03/02 06:30:18;;;;;;;;;;;;;;;5.64;46.27;101980.53;4999783;28;20346;-76
2022/03/02 06:32:44;;;;;;;;;;;;;;;5.48;46.82;101984.50;5004509;28;19925;-75
2022/03/02 06:35:09;;;;;;;;;;;;;;;5.54;45.27;101981.19;5005884;28;19921;-78
2022/03/02 06:37:35;;;;;;;;;;;;;;;5.37;46.59;101983.44;5008706;28;19925;-78
2022/03/02 06:40:04;;;;;;;;;;;;;;;5.31;47.37;101976.47;5012773;28;19929;-78
2022/03/02 06:42:52;;;;;;;;;;;;;;;5.57;47.14;101976.09;5004555;28;19929;-78
2022/03/02 06:45:19;;;;;;;;;;;;;;;5.59;46.47;101971.84;5004484;28;19933;-78
2022/03/02 06:47:48;;;;;;;;;;;;;;;5.83;45.75;101967.97;5010755;28;20467;-78
2022/03/02 06:50:16;;;;;;;;;;;;;;;5.86;45.63;101964.59;5019957;28;20020;-78
2022/03/02 06:52:45;;;;;;;;;;;;;;;5.89;45.21;101968.09;5024188;28;20039;-78
2022/03/02 06:55:15;;;;;;;;;;;;;;;5.95;44.35;101968.19;5007860;28;20010;-79
2022/03/02 06:57:44;;;;;;;;;;;;;;;5.94;46.05;101973.34;5007536;28;20045;-78
2022/03/02 07:00:13;;;;;;;;;;;;;;;5.84;43.90;101959.41;4998140;28;20023;-78
2022/03/02 07:02:56;;;;;;;;;;;;;;;5.93;44.88;101963.84;5009993;28;19933;-78
2022/03/02 07:05:21;;;;;;;;;;;;;;;5.72;46.01;101956.63;5006839;28;20468;-76
2022/03/02 07:07:47;;;;;;;;;;;;;;;5.81;46.58;101961.94;5001015;28;19922;-76
2022/03/02 07:10:13;;;;;;;;;;;;;;;5.74;45.67;101965.22;5026235;28;19917;-76
2022/03/02 07:12:39;;;;;;;;;;;;;;;5.79;46.23;101967.91;5026864;28;19960;-76
2022/03/02 07:15:05;;;;;;;;;;;;;;;5.63;47.74;101977.06;5007295;28;19928;-78
2022/03/02 07:17:32;;;;;;;;;;;;;;;5.84;47.55;101976.59;5003500;28;20012;-78
2022/03/02 07:20:00;;;;;;;;;;;;;;;5.91;46.74;101978.44;4998707;28;20402;-78
2022/03/02 07:22:36;;;;;;;;;;;;;;;5.91;48.07;101979.31;5023516;28;20611;-77
2022/03/02 07:25:06;;;;;;;;;;;;;;;5.91;47.33;101981.03;5005214;28;20178;-77
2022/03/02 07:27:36;;;;;;;;;;;;;;;5.84;47.55;101976.59;5001559;28;19926;-77
2022/03/02 07:30:01;;;;;;;;;;;;;;;5.83;47.08;101980.03;4998930;28;19930;-77
2022/03/02 07:32:31;;;;;;;;;;;;;;;5.94;47.59;101970.75;5010745;28;19929;-77
2022/03/02 07:35:00;;;;;;;;;;;;;;;5.93;46.76;101974.16;5010541;28;19922;-77
2022/03/02 07:37:26;;;;;;;;;;;;;;;5.83;47.03;101975.72;5021269;28;19921;-77
2022/03/02 07:39:52;;;;;;;;;;;;;;;5.79;47.45;101973.06;5004775;28;20294;-77
2022/03/02 07:42:19;;;;;;;;;;;;;;;5.76;48.75;101979.03;5011507;28;22164;-77
2022/03/02 07:44:46;;;;;;;;;;;;;;;5.87;47.98;101982.66;5001730;28;19921;-77
2022/03/02 07:47:11;;;;;;;;;;;;;;;5.83;47.03;101991.19;5010290;28;19928;-77
2022/03/02 07:49:37;;;;;;;;;;;;;;;5.76;47.70;101985.91;5005794;28;19983;-77
2022/03/02 07:52:05;;;;;;;;;;;;;;;5.93;47.71;101997.38;5002608;28;20279;-77
2022/03/02 07:54:30;;;;;;;;;;;;;;;5.97;46.67;101994.91;5005477;28;19929;-77
2022/03/02 07:56:58;;;;;;;;;;;;;;;6.00;47.29;101988.91;4996326;28;19925;-77
2022/03/02 07:59:23;;;;;;;;;;;;;;;5.99;46.83;101989.75;5004419;28;19925;-77
2022/03/02 08:01:48;;;;;;;;;;;;;;;5.80;47.33;101991.13;5010528;28;19921;-77
2022/03/02 08:04:14;;;;;;;;;;;;;;;5.85;47.74;101989.53;5004623;28;19949;-77
2022/03/02 08:06:40;;;;;;;;;;;;;;;5.84;45.91;101995.50;5006699;28;19930;-77
2022/03/02 08:09:07;;;;;;;;;;;;;;;5.98;47.23;102000.91;5002357;28;19929;-77
2022/03/02 08:11:33;;;;;;;;;;;;;;;5.99;47.97;101995.78;4999964;28;20012;-77
2022/03/02 08:13:59;;;;;;;;;;;;;;;5.98;48.22;101996.59;5008187;28;20792;-77
2022/03/02 08:16:26;;;;;;;;;;;;;;;5.88;47.41;102007.63;5005440;28;19918;-77
2022/03/02 08:18:51;;;;;;;;;;;;;;;6.14;46.26;102002.91;5009909;28;19968;-77
2022/03/02 08:21:18;;;;;;;;;;;;;;;6.08;46.31;102004.50;4999216;28;19925;-77
2022/03/02 08:23:44;;;;;;;;;;;;;;;6.11;47.09;101996.81;5006043;28;20008;-77
2022/03/02 08:26:11;;;;;;;;;;;;;;;6.08;46.91;101996.78;5005839;28;20055;-77
2022/03/02 08:28:37;;;;;;;;;;;;;;;6.18;47.55;101994.38;4999038;28;20423;-77
2022/03/02 08:31:03;;;;;;;;;;;;;;;6.23;47.73;101982.41;5000533;28;20424;-77
2022/03/02 08:33:32;;;;;;;;;;;;;;;6.33;47.29;101975.69;5005660;28;19929;-78
2022/03/02 08:35:58;;;;;;;;;;;;;;;6.31;46.74;101972.19;5014941;28;20309;-77
2022/03/02 08:38:24;;;;;;;;;;;;;;;6.40;44.14;101960.31;5002398;28;19921;-77
2022/03/02 08:40:49;;;;;;;;;;;;;;;6.23;45.33;101955.75;5002549;28;19925;-77
2022/03/02 08:43:15;;;;;;;;;;;;;;;6.48;44.12;101955.31;5007025;28;20363;-77
2022/03/02 08:45:48;;;;;;;;;;;;;;;6.29;41.47;101940.34;5001097;28;19930;-77
2022/03/02 08:48:14;;;;;;;;;;;;;;;6.53;41.75;101945.91;5005662;28;19940;-77
2022/03/02 08:50:40;;;;;;;;;;;;;;;6.69;41.79;101937.56;5002946;28;19929;-77
2022/03/02 08:53:06;;;;;;;;;;;;;;;6.51;42.39;101943.28;5002405;28;20364;-77
2022/03/02 08:55:32;;;;;;;;;;;;;;;6.49;43.67;101949.28;5006358;28;19929;-77
2022/03/02 08:57:58;;;;;;;;;;;;;;;6.46;42.66;101944.03;5004800;28;19953;-78
2022/03/02 09:00:23;;;;;;;;;;;;;;;6.51;44.28;101950.19;5002299;28;19936;-77
2022/03/02 09:02:51;;;;;;;;;;;;;;;6.57;44.15;101951.13;4999101;28;19929;-78
2022/03/02 09:05:17;;;;;;;;;;;;;;;6.42;43.54;101948.31;5004924;28;20378;-78
2022/03/02 09:07:42;;;;;;;;;;;;;;;6.50;43.80;101943.28;5004084;28;19963;-78
2022/03/02 09:10:08;;;;;;;;;;;;;;;6.63;42.18;101939.19;5005769;28;19937;-78
2022/03/02 09:12:34;;;;;;;;;;;;;;;6.65;43.12;101932.31;5009653;28;20402;-78
2022/03/02 09:14:59;;;;;;;;;;;;;;;6.61;42.09;101930.53;5009100;28;21001;-78
2022/03/02 09:17:25;;;;;;;;;;;;;;;6.73;42.07;101926.41;5006626;28;20349;-79
2022/03/02 09:19:54;;;;;;;;;;;;;;;6.74;41.14;101920.41;5003624;28;19979;-79
2022/03/02 09:22:21;;;;;;;;;;;;;;;6.82;41.84;101917.91;5008724;28;19936;-79
2022/03/02 09:24:46;;;;;;;;;;;;;;;6.84;43.15;101917.06;5008140;28;19952;-79
2022/03/02 09:27:11;;;;;;;;;;;;;;;6.83;40.51;101909.31;5005545;28;19921;-80
2022/03/02 09:29:39;;;;;;;;;;;;;;;6.93;41.89;101911.16;5002838;28;19930;-80
2022/03/02 09:32:05;;;;;;;;;;;;;;;6.96;42.30;101906.88;5006747;28;19943;-79
2022/03/02 09:34:30;;;;;;;;;;;;;;;6.85;43.54;101913.63;5012974;28;19925;-79
2022/03/02 09:36:57;;;;;;;;;;;;;;;6.96;42.58;101908.63;5004332;28;19933;-79
2022/03/02 09:39:23;;;;;;;;;;;;;;;6.92;43.27;101912.00;5021275;28;20397;-79
2022/03/02 09:41:55;;;;;;;;;;;;;;;6.91;41.62;101898.22;5007433;28;19972;-79
2022/03/02 09:44:21;;;;;;;;;;;;;;;6.84;43.32;101901.56;5009758;28;19926;-78
2022/03/02 09:46:51;;;;;;;;;;;;;;;7.01;42.75;101887.16;5008519;28;19945;-79
2022/03/02 09:49:20;;;;;;;;;;;;;;;7.02;41.01;101886.28;5028341;28;19921;-79
2022/03/02 09:51:49;;;;;;;;;;;;;;;6.98;41.99;101892.28;5008750;28;19921;-78
2022/03/02 09:54:20;;;;;;;;;;;;;;;7.10;42.32;101883.81;5005908;28;20301;-78
2022/03/02 09:56:48;;;;;;;;;;;;;;;7.11;42.50;101881.22;5008058;28;19921;-78
2022/03/02 09:59:15;;;;;;;;;;;;;;;7.06;42.05;101876.84;5021147;28;20008;-79
2022/03/02 10:01:42;;;;;;;;;;;;;;;7.12;42.42;101876.94;5008367;28;20413;-79
2022/03/02 10:04:18;;;;;;;;;;;;;;;7.20;41.63;101871.84;5005890;28;19951;-78
2022/03/02 10:06:44;;;;;;;;;;;;;;;7.31;40.71;101873.69;5001659;28;19953;-79
2022/03/02 10:09:11;;;;;;;;;;;;;;;7.43;40.27;101867.78;5009092;28;19977;-77
2022/03/02 10:11:39;;;;;;;;;;;;;;;7.43;40.29;101870.38;5004191;28;19921;-77
2022/03/02 10:14:04;;;;;;;;;;;;;;;7.34;40.08;101875.44;5023099;28;19932;-79
2022/03/02 10:16:32;;;;;;;;;;;;;;;7.46;41.88;101868.69;5005911;28;19925;-79
2022/03/02 10:18:59;;;;;;;;;;;;;;;7.42;41.11;101877.25;5004826;28;20444;-79
2022/03/02 10:21:31;;;;;;;;;;;;;;;7.37;41.39;101884.09;5006778;28;19929;-79
2022/03/02 10:24:01;;;;;;;;;;;;;;;7.22;44.18;101877.91;5004703;28;20287;-79
2022/03/02 10:26:27;;;;;;;;;;;;;;;7.26;42.54;101870.19;5023539;28;20313;-79
2022/03/02 10:29:00;;;;;;;;;;;;;;;7.28;40.91;101872.78;5005329;28;19921;-79
2022/03/02 10:31:40;;;;;;;;;;;;;;;7.44;39.29;101864.31;5006014;28;20008;-79
2022/03/02 10:34:24;;;;;;;;;;;;;;;7.34;40.25;101863.38;5004677;28;20382;-79
2022/03/02 10:36:54;;;;;;;;;;;;;;;7.42;40.52;101866.03;5005900;28;20401;-79
2022/03/02 10:39:34;;;;;;;;;;;;;;;7.38;41.50;101870.31;5004107;28;19930;-77
2022/03/02 10:42:03;;;;;;;;;;;;;;;7.50;40.37;101866.97;5007629;28;19925;-77
2022/03/02 10:44:35;;;;;;;;;;;;;;;7.68;39.17;101867.13;5018018;28;20603;-78
2022/03/02 10:47:02;;;;;;;;;;;;;;;7.63;40.83;101866.22;5002387;28;19928;-78
2022/03/02 10:49:29;;;;;;;;;;;;;;;7.63;38.44;101872.28;5006891;28;19934;-78
2022/03/02 10:51:55;;;;;;;;;;;;;;;7.66;37.32;101868.84;5007687;28;19925;-79
2022/03/02 10:54:22;;;;;;;;;;;;;;;7.69;40.39;101868.88;5003968;28;19933;-79
2022/03/02 10:56:49;;;;;;;;;;;;;;;7.61;38.76;101863.63;5004869;28;19949;-79
2022/03/02 10:59:18;;;;;;;;;;;;;;;7.72;40.13;101860.25;5004153;28;19933;-79
2022/03/02 11:01:44;;;;;;;;;;;;;;;7.78;38.55;101857.72;5020426;28;19929;-79
2022/03/02 11:04:09;;;;;;;;;;;;;;;7.69;39.95;101858.53;4997597;28;19925;-79
2022/03/02 11:06:35;;;;;;;;;;;;;;;7.60;40.17;101861.03;4997693;28;19926;-79
2022/03/02 11:09:02;;;;;;;;;;;;;;;7.59;40.09;101857.56;5007022;28;20071;-79
2022/03/02 11:11:31;;;;;;;;;;;;;;;7.66;39.95;101851.59;5007367;28;19922;-79
2022/03/02 11:13:57;;;;;;;;;;;;;;;7.74;37.53;101848.19;5005956;28;20401;-79
2022/03/02 11:16:22;;;;;;;;;;;;;;;7.78;39.28;101847.38;5002259;28;19932;-79
2022/03/02 11:18:52;;;;;;;;;;;;;;;7.88;38.12;101851.78;5001511;28;19933;-79
2022/03/02 11:21:20;;;;;;;;;;;;;;;7.88;39.88;101839.69;5002837;28;19932;-79
2022/03/02 11:23:46;;;;;;;;;;;;;;;7.93;37.18;101834.56;5002867;28;19925;-79
2022/03/02 11:26:12;;;;;;;;;;;;;;;7.91;37.71;101833.69;5004820;28;19930;-79
2022/03/02 11:28:38;;;;;;;;;;;;;;;7.95;38.31;101833.72;5006121;28;20582;-79
2022/03/02 11:31:05;;;;;;;;;;;;;;;7.82;37.58;101815.53;5009153;28;19961;-79
2022/03/02 11:33:31;;;;;;;;;;;;;;;8.14;36.62;101817.44;5006112;28;20326;-79
2022/03/02 11:36:00;;;;;;;;;;;;;;;8.22;36.82;101823.53;5006038;28;19975;-79
2022/03/02 11:38:28;;;;;;;;;;;;;;;8.15;35.16;101814.00;5002316;28;20724;-79
2022/03/02 11:40:53;;;;;;;;;;;;;;;8.11;39.02;101816.56;5017382;28;20600;-79
2022/03/02 11:43:20;;;;;;;;;;;;;;;8.19;36.79;101815.75;5009427;28;19940;-79
2022/03/02 11:45:45;;;;;;;;;;;;;;;8.08;37.58;101814.84;5007922;28;19932;-79
2022/03/02 11:48:13;;;;;;;;;;;;;;;8.06;37.32;101813.94;5002336;28;19929;-78
2022/03/02 11:50:58;;;;;;;;;;;;;;;8.05;37.46;101813.94;5005122;28;20298;-79
2022/03/02 11:53:30;;;;;;;;;;;;;;;8.18;37.71;101803.66;5003493;28;19929;-80
2022/03/02 11:55:56;;;;;;;;;;;;;;;8.35;38.47;101808.97;5006408;28;19924;-80
2022/03/02 11:58:21;;;;;;;;;;;;;;;8.21;38.10;101803.66;5008997;28;19918;-79
2022/03/02 12:00:47;;;;;;;;;;;;;;;8.16;36.13;101797.63;5018966;28;20009;-79
2022/03/02 12:03:12;;;;;;;;;;;;;;;8.21;36.84;101795.91;5012927;28;19928;-79
2022/03/02 12:05:37;;;;;;;;;;;;;;;8.21;37.79;101793.31;5009579;28;19922;-79
2022/03/02 12:08:10;;;;;;;;;;;;;;;8.34;36.61;101788.22;5005326;28;20413;-79
2022/03/02 12:10:39;;;;;;;;;;;;;;;8.34;38.67;101786.50;5006683;28;20310;-79
2022/03/02 12:13:05;;;;;;;;;;;;;;;8.33;37.19;101787.34;5001146;28;19932;-79
2022/03/02 12:15:49;;;;;;;;;;;;;;;8.39;36.98;101774.44;5004052;28;20004;-79
2022/03/02 12:18:16;;;;;;;;;;;;;;;8.38;37.07;101772.72;5006719;28;19925;-78
2022/03/02 12:20:45;;;;;;;;;;;;;;;8.31;35.66;101770.06;5004294;28;19947;-79
2022/03/02 12:23:11;;;;;;;;;;;;;;;8.48;35.07;101771.88;5007181;28;19995;-79
2022/03/02 12:25:42;;;;;;;;;;;;;;;8.51;36.18;101768.44;5022476;28;20418;-79
2022/03/02 12:28:10;;;;;;;;;;;;;;;8.44;37.73;101752.03;5000065;28;20047;-79
2022/03/02 12:30:36;;;;;;;;;;;;;;;8.52;36.21;101750.34;5011431;28;19929;-79
2022/03/02 12:33:02;;;;;;;;;;;;;;;8.67;35.89;101746.91;5027023;28;19925;-79
2022/03/02 12:35:27;;;;;;;;;;;;;;;8.51;37.57;101743.41;5045584;28;20549;-77
2022/03/02 12:37:56;;;;;;;;;;;;;;;8.63;36.17;101735.69;5025745;28;20444;-79
2022/03/02 12:40:21;;;;;;;;;;;;;;;8.75;37.58;101743.47;5006908;28;19921;-79
2022/03/02 12:42:47;;;;;;;;;;;;;;;8.68;34.99;101735.72;5006322;28;20386;-79
2022/03/02 12:45:13;;;;;;;;;;;;;;;8.67;35.41;101719.31;5004646;28;19931;-79